createdAt,value
2023-08-07T00:02:05.244Z,101911.38
2023-08-07T00:04:31.820Z,101914.22
2023-08-07T00:06:59.480Z,101906.97
2023-08-07T00:09:26.143Z,101912.81
2023-08-07T00:11:54.026Z,101899.84
2023-08-07T00:14:21.981Z,101902.72
2023-08-07T00:16:48.575Z,101903.69
2023-08-07T00:19:15.118Z,101906.66
2023-08-07T00:21:42.772Z,101901.28
2023-08-07T00:24:09.340Z,101909.38
2023-08-07T00:26:37.003Z,101906.66
2023-08-07T00:29:03.571Z,101899.72
2023-08-07T00:31:31.359Z,101902.38
2023-08-07T00:34:01.144Z,101902.41
2023-08-07T00:36:28.704Z,101904.25
2023-08-07T00:38:56.529Z,101908.84
2023-08-07T00:41:23.152Z,101900.72
2023-08-07T00:43:50.838Z,101903.06
2023-08-07T00:46:18.790Z,101901.38
2023-08-07T00:48:45.598Z,101899.78
2023-08-07T00:51:13.796Z,101896.78
2023-08-07T00:53:41.945Z,101900.59
2023-08-07T00:56:08.669Z,101892.63
2023-08-07T00:58:36.450Z,101902.44
2023-08-07T01:01:04.346Z,101900.25
2023-08-07T01:03:31.090Z,101874.03
2023-08-07T01:05:59.009Z,101904.34
2023-08-07T01:08:27.572Z,101901.50
2023-08-07T01:11:30.691Z,101902.81
2023-08-07T01:14:16.009Z,101895.00
2023-08-07T01:16:52.978Z,101899.28
2023-08-07T01:19:28.914Z,101897.84
2023-08-07T01:22:11.647Z,101894.88
2023-08-07T01:24:41.246Z,101890.34
2023-08-07T01:27:20.857Z,101899.41
2023-08-07T01:29:51.366Z,101899.28
2023-08-07T01:32:27.221Z,101895.13
2023-08-07T01:34:56.644Z,101889.75
2023-08-07T01:37:24.936Z,101889.63
2023-08-07T01:39:52.412Z,101887.06
2023-08-07T01:42:20.440Z,101886.34
2023-08-07T01:44:47.081Z,101884.91
2023-08-07T01:47:14.806Z,101881.03
2023-08-07T01:49:41.394Z,101886.63
2023-08-07T01:52:09.102Z,101884.06
2023-08-07T01:54:36.729Z,101885.19
2023-08-07T01:57:04.570Z,101879.63
2023-08-07T01:59:31.130Z,101881.44
2023-08-07T02:01:58.826Z,101876.59
2023-08-07T02:04:25.425Z,101870.75
2023-08-07T02:06:51.974Z,101866.00
2023-08-07T02:09:19.565Z,101857.84
2023-08-07T02:11:46.152Z,101864.31
2023-08-07T02:14:13.770Z,101861.03
2023-08-07T02:16:40.428Z,101861.88
2023-08-07T02:19:07.010Z,101857.63
2023-08-07T02:21:34.912Z,101854.34
2023-08-07T02:24:02.568Z,101859.59
2023-08-07T02:26:30.196Z,101843.69
2023-08-07T02:28:56.776Z,101855.78
2023-08-07T02:31:24.459Z,101853.09
2023-08-07T02:33:51.062Z,101845.75
2023-08-07T02:36:17.629Z,101844.56
2023-08-07T02:38:45.260Z,101845.28
2023-08-07T02:41:11.796Z,101827.66
2023-08-07T02:43:38.347Z,101831.09
2023-08-07T02:46:06.029Z,101830.13
2023-08-07T02:48:32.655Z,101823.66
2023-08-07T02:50:59.225Z,101826.34
2023-08-07T02:53:26.813Z,101823.19
2023-08-07T02:55:53.399Z,101820.50
2023-08-07T02:58:21.132Z,101822.59
2023-08-07T03:00:48.768Z,101845.81
2023-08-07T03:03:16.439Z,101854.13
2023-08-07T03:05:52.881Z,101853.63
2023-08-07T03:08:20.503Z,101837.16
2023-08-07T03:11:00.237Z,101851.06
2023-08-07T03:13:27.588Z,101849.34
2023-08-07T03:16:06.622Z,101844.97
2023-08-07T03:18:33.295Z,101849.59
2023-08-07T03:21:00.207Z,101846.91
2023-08-07T03:23:29.959Z,101844.09
2023-08-07T03:28:41.644Z,101846.78
2023-08-07T03:31:08.386Z,101837.25
2023-08-07T03:33:36.071Z,101836.50
2023-08-07T03:36:02.687Z,101830.41
2023-08-07T03:38:30.338Z,101831.63
2023-08-07T03:40:56.882Z,101832.84
2023-08-07T03:43:24.558Z,101832.44
2023-08-07T03:45:59.347Z,101823.41
2023-08-07T03:48:27.956Z,101812.50
2023-08-07T03:51:03.367Z,101819.50
2023-08-07T03:53:29.926Z,101814.00
2023-08-07T03:55:57.571Z,101806.38
2023-08-07T03:58:24.112Z,101805.88
2023-08-07T04:00:53.530Z,101803.50
2023-08-07T04:03:21.602Z,101813.41
2023-08-07T04:05:49.387Z,101807.94
2023-08-07T04:08:16.140Z,101815.13
2023-08-07T04:10:42.732Z,101810.50
2023-08-07T04:13:10.452Z,101807.31
2023-08-07T04:15:37.069Z,101811.38
2023-08-07T04:18:04.777Z,101802.19
2023-08-07T04:20:31.349Z,101797.34
2023-08-07T04:22:57.920Z,101802.84
2023-08-07T04:25:25.744Z,101803.31
2023-08-07T04:27:52.317Z,101785.13
2023-08-07T04:30:18.952Z,101814.41
2023-08-07T04:32:46.648Z,101810.00
2023-08-07T04:35:13.210Z,101816.00
2023-08-07T04:37:41.798Z,101818.69
2023-08-07T04:40:08.943Z,101822.97
2023-08-07T04:42:36.606Z,101817.44
2023-08-07T04:45:03.307Z,101810.50
2023-08-07T04:47:30.964Z,101813.66
2023-08-07T04:49:57.551Z,101815.22
2023-08-07T04:52:26.785Z,101819.50
2023-08-07T04:54:53.697Z,101811.16
2023-08-07T04:57:20.287Z,101820.47
2023-08-07T04:59:47.919Z,101806.69
2023-08-07T05:02:14.511Z,101818.50
2023-08-07T05:04:42.131Z,101808.91
2023-08-07T05:07:08.684Z,101814.50
2023-08-07T05:09:36.310Z,101800.78
2023-08-07T05:12:03.075Z,101806.28
2023-08-07T05:14:33.696Z,101799.91
2023-08-07T05:17:00.298Z,101809.31
2023-08-07T05:19:27.105Z,101810.28
2023-08-07T05:21:54.930Z,101804.06
2023-08-07T05:24:21.694Z,101794.88
2023-08-07T05:26:49.359Z,101797.31
2023-08-07T05:29:15.897Z,101801.56
2023-08-07T05:31:42.491Z,101800.59
2023-08-07T05:34:10.104Z,101806.69
2023-08-07T05:36:36.644Z,101804.13
2023-08-07T05:39:06.845Z,101808.13
2023-08-07T05:41:34.487Z,101811.53
2023-08-07T05:44:01.073Z,101814.50
2023-08-07T05:46:28.662Z,101823.28
2023-08-07T05:48:55.219Z,101814.78
2023-08-07T05:51:22.836Z,101809.44
2023-08-07T05:53:50.543Z,101808.91
2023-08-07T05:56:17.146Z,101805.22
2023-08-07T05:58:43.729Z,101805.66
2023-08-07T06:01:11.383Z,101796.31
2023-08-07T06:03:39.035Z,101811.25
2023-08-07T06:06:06.709Z,101803.19
2023-08-07T06:08:33.290Z,101806.84
2023-08-07T06:11:00.921Z,101806.31
2023-08-07T06:13:36.119Z,101805.78
2023-08-07T06:16:04.484Z,101801.69
2023-08-07T06:18:31.069Z,101800.00
2023-08-07T06:20:58.752Z,101799.00
2023-08-07T06:23:25.333Z,101798.88
2023-08-07T06:25:54.874Z,101793.81
2023-08-07T06:28:25.349Z,101794.81
2023-08-07T06:30:51.925Z,101788.63
2023-08-07T06:33:19.521Z,101797.13
2023-08-07T06:35:46.084Z,101795.00
2023-08-07T06:38:12.700Z,101799.13
2023-08-07T06:40:40.363Z,101796.72
2023-08-07T06:43:06.906Z,101795.59
2023-08-07T06:45:34.498Z,101798.28
2023-08-07T06:48:02.202Z,101796.56
2023-08-07T06:50:28.806Z,101786.78
2023-08-07T06:52:55.394Z,101787.50
2023-08-07T06:55:23.002Z,101780.97
2023-08-07T06:57:49.608Z,101785.97
2023-08-07T07:00:17.925Z,101781.13
2023-08-07T07:02:44.535Z,101791.06
2023-08-07T07:05:11.078Z,101790.78
2023-08-07T07:07:38.729Z,101788.94
2023-08-07T07:10:05.706Z,101788.25
2023-08-07T07:12:33.319Z,101792.94
2023-08-07T07:15:00.584Z,101792.81
2023-08-07T07:17:28.270Z,101792.81
2023-08-07T07:19:55.033Z,101789.25
2023-08-07T07:22:21.610Z,101794.66
2023-08-07T07:24:49.227Z,101794.22
2023-08-07T07:27:15.773Z,101790.69
2023-08-07T07:29:43.381Z,101784.28
2023-08-07T07:32:09.954Z,101785.28
2023-08-07T07:34:37.588Z,101781.44
2023-08-07T07:37:04.749Z,101790.81
2023-08-07T07:39:31.371Z,101787.56
2023-08-07T07:41:59.186Z,101795.81
2023-08-07T07:44:26.163Z,101787.69
2023-08-07T07:46:53.844Z,101795.06
2023-08-07T07:49:21.455Z,101794.66
2023-08-07T07:51:49.057Z,101780.03
2023-08-07T07:54:15.971Z,101784.00
2023-08-07T07:56:45.121Z,101788.66
2023-08-07T07:59:13.591Z,101786.13
2023-08-07T08:01:40.183Z,101787.00
2023-08-07T08:04:09.185Z,101788.53
2023-08-07T08:06:35.813Z,101780.59
2023-08-07T08:09:03.685Z,101788.84
2023-08-07T08:11:31.324Z,101785.44
2023-08-07T08:13:58.950Z,101786.94
2023-08-07T08:16:25.584Z,101789.06
2023-08-07T08:18:54.211Z,101781.25
2023-08-07T08:21:20.772Z,101786.91
2023-08-07T08:23:48.395Z,101784.06
2023-08-07T08:26:14.977Z,101782.78
2023-08-07T08:28:41.532Z,101775.22
2023-08-07T08:31:09.157Z,101779.16
2023-08-07T08:33:36.764Z,101761.94
2023-08-07T08:36:03.383Z,101769.84
2023-08-07T08:38:29.941Z,101772.97
2023-08-07T08:40:57.980Z,101769.09
2023-08-07T08:43:26.302Z,101767.84
2023-08-07T08:45:55.264Z,101772.25
2023-08-07T08:48:23.262Z,101761.28
2023-08-07T08:50:50.921Z,101766.63
2023-08-07T08:53:19.743Z,101759.41
2023-08-07T08:55:46.680Z,101762.69
2023-08-07T08:58:17.269Z,101764.78
2023-08-07T09:00:44.112Z,101752.59
2023-08-07T09:03:11.852Z,101763.13
2023-08-07T09:05:39.757Z,101746.03
2023-08-07T09:08:06.610Z,101754.50
2023-08-07T09:10:33.517Z,101748.00
2023-08-07T09:13:04.547Z,101750.47
2023-08-07T09:15:33.892Z,101751.16
2023-08-07T09:18:00.868Z,101739.75
2023-08-07T09:20:27.717Z,101740.28
2023-08-07T09:22:55.366Z,101737.09
2023-08-07T09:25:30.623Z,101751.00
2023-08-07T09:27:58.290Z,101744.38
2023-08-07T09:30:29.906Z,101751.31
2023-08-07T09:33:01.923Z,101751.09
2023-08-07T09:35:31.388Z,101740.81
2023-08-07T09:37:58.506Z,101733.00
2023-08-07T09:40:26.170Z,101741.97
2023-08-07T09:42:54.639Z,101740.88
2023-08-07T09:45:25.156Z,101737.91
2023-08-07T09:48:02.016Z,101731.16
2023-08-07T09:50:30.879Z,101743.31
2023-08-07T09:52:58.109Z,101733.31
2023-08-07T09:55:26.322Z,101743.22
2023-08-07T09:57:53.329Z,101735.13
2023-08-07T10:00:21.457Z,101731.78
2023-08-07T10:02:50.910Z,101733.88
2023-08-07T10:05:18.521Z,101727.38
2023-08-07T10:07:45.390Z,101722.66
2023-08-07T10:10:13.191Z,101723.06
2023-08-07T10:12:40.006Z,101723.09
2023-08-07T10:15:07.706Z,101731.28
2023-08-07T10:17:35.640Z,101725.34
2023-08-07T10:20:02.369Z,101724.50
2023-08-07T10:22:32.723Z,101724.47
2023-08-07T10:25:02.657Z,101724.84
2023-08-07T10:27:35.666Z,101722.72
2023-08-07T10:30:07.722Z,101713.03
2023-08-07T10:32:36.020Z,101726.59
2023-08-07T10:35:06.590Z,101716.09
2023-08-07T10:37:40.207Z,101722.22
2023-08-07T10:40:08.492Z,101722.56
2023-08-07T10:43:02.426Z,101702.56
2023-08-07T10:45:29.593Z,101720.47
2023-08-07T10:48:04.000Z,101724.00
2023-08-07T10:50:35.248Z,101718.16
2023-08-07T10:53:04.679Z,101706.94
2023-08-07T10:55:49.842Z,101709.09
2023-08-07T10:58:42.694Z,101707.53
2023-08-07T11:01:27.586Z,101718.84
2023-08-07T11:03:57.466Z,101718.28
2023-08-07T11:06:29.859Z,101713.72
2023-08-07T11:08:57.185Z,101718.88
2023-08-07T11:11:24.872Z,101718.34
2023-08-07T11:13:53.041Z,101717.47
2023-08-07T11:16:20.337Z,101705.69
2023-08-07T11:18:47.981Z,101697.72
2023-08-07T11:21:14.635Z,101713.59
2023-08-07T11:23:43.384Z,101702.22
2023-08-07T11:26:10.463Z,101698.25
2023-08-07T11:28:37.352Z,101696.94
2023-08-07T11:31:05.215Z,101686.84
2023-08-07T11:33:31.887Z,101681.50
2023-08-07T11:35:59.765Z,101680.19
2023-08-07T11:38:40.539Z,101678.66
2023-08-07T11:41:09.497Z,101679.19
2023-08-07T11:43:36.128Z,101669.38
2023-08-07T11:46:04.569Z,101665.31
2023-08-07T11:48:33.754Z,101670.56
2023-08-07T11:51:01.686Z,101664.97
2023-08-07T11:53:31.614Z,101668.44
2023-08-07T11:56:09.119Z,101663.69
2023-08-07T11:58:39.753Z,101657.22
2023-08-07T12:01:07.183Z,101652.34
2023-08-07T12:03:38.059Z,101657.91
2023-08-07T12:06:07.558Z,101643.47
2023-08-07T12:08:41.557Z,101639.56
2023-08-07T12:11:14.189Z,101640.22
2023-08-07T12:13:44.848Z,101642.09
2023-08-07T12:16:13.063Z,101628.88
2023-08-07T12:18:39.698Z,101630.22
2023-08-07T12:21:08.807Z,101639.53
2023-08-07T12:23:37.841Z,101638.50
2023-08-07T12:26:05.588Z,101640.56
2023-08-07T12:28:33.164Z,101637.34
2023-08-07T12:30:59.953Z,101638.22
2023-08-07T12:33:26.516Z,101632.75
2023-08-07T12:35:54.846Z,101628.53
2023-08-07T12:38:21.412Z,101632.06
2023-08-07T12:40:48.071Z,101613.59
2023-08-07T12:43:15.831Z,101618.81
2023-08-07T12:48:13.083Z,101616.78
2023-08-07T12:50:40.210Z,101622.03
2023-08-07T12:53:08.070Z,101617.78
2023-08-07T12:55:35.798Z,101606.72
2023-08-07T12:58:02.385Z,101615.72
2023-08-07T13:00:28.952Z,101600.84
2023-08-07T13:02:56.573Z,101609.97
2023-08-07T13:05:23.428Z,101609.59
2023-08-07T13:07:51.202Z,101607.38
2023-08-07T13:10:18.421Z,101609.22
2023-08-07T13:12:48.997Z,101600.72
2023-08-07T13:15:18.112Z,101588.50
2023-08-07T13:17:45.242Z,101598.66
2023-08-07T13:20:15.048Z,101597.75
2023-08-07T13:22:43.671Z,101606.03
2023-08-07T13:25:14.988Z,101601.94
2023-08-07T13:27:42.574Z,101605.88
2023-08-07T13:30:10.705Z,101601.88
2023-08-07T13:32:37.778Z,101604.41
2023-08-07T13:35:06.065Z,101601.78
2023-08-07T13:37:32.852Z,101600.22
2023-08-07T13:39:59.400Z,101600.44
2023-08-07T13:42:27.343Z,101605.88
2023-08-07T13:44:55.996Z,101611.50
2023-08-07T13:47:22.696Z,101612.19
2023-08-07T13:49:49.271Z,101607.25
2023-08-07T13:52:17.356Z,101606.28
2023-08-07T13:54:43.935Z,101604.75
2023-08-07T13:57:10.518Z,101612.88
2023-08-07T13:59:38.175Z,101594.88
2023-08-07T14:02:04.913Z,101577.84
2023-08-07T14:04:31.459Z,101573.28
2023-08-07T14:07:00.310Z,101589.38
2023-08-07T14:09:27.287Z,101586.84
2023-08-07T14:11:55.421Z,101584.25
2023-08-07T14:14:22.272Z,101579.38
2023-08-07T14:16:48.886Z,101577.31
2023-08-07T14:19:16.605Z,101587.28
2023-08-07T14:21:43.145Z,101577.69
2023-08-07T14:24:10.705Z,101568.41
2023-08-07T14:26:37.332Z,101573.97
2023-08-07T14:29:03.876Z,101574.00
2023-08-07T14:31:31.572Z,101572.38
2023-08-07T14:34:00.234Z,101566.44
2023-08-07T14:36:26.683Z,101570.03
2023-08-07T14:38:53.261Z,101563.19
2023-08-07T14:41:20.896Z,101562.41
2023-08-07T14:43:48.030Z,101567.88
2023-08-07T14:46:17.920Z,101560.34
2023-08-07T14:48:45.521Z,101562.88
2023-08-07T14:51:12.075Z,101567.78
2023-08-07T14:53:39.742Z,101569.09
2023-08-07T14:56:06.419Z,101559.94
2023-08-07T14:58:32.997Z,101557.53
2023-08-07T15:01:00.651Z,101553.53
2023-08-07T15:03:27.268Z,101560.34
2023-08-07T15:05:53.821Z,101560.53
2023-08-07T15:08:21.587Z,101555.81
2023-08-07T15:10:48.154Z,101562.44
2023-08-07T15:13:15.800Z,101566.84
2023-08-07T15:15:42.427Z,101557.38
2023-08-07T15:18:09.122Z,101559.78
2023-08-07T15:20:38.235Z,101558.22
2023-08-07T15:23:04.943Z,101547.59
2023-08-07T15:25:31.526Z,101547.09
2023-08-07T15:27:59.198Z,101540.47
2023-08-07T15:30:28.054Z,101532.34
2023-08-07T15:32:55.736Z,101541.19
2023-08-07T15:35:23.400Z,101534.19
2023-08-07T15:37:50.271Z,101537.09
2023-08-07T15:40:17.967Z,101531.59
2023-08-07T15:42:44.532Z,101525.97
2023-08-07T15:45:11.160Z,101529.31
2023-08-07T15:47:38.810Z,101528.59
2023-08-07T15:50:05.892Z,101532.28
2023-08-07T15:52:33.501Z,101528.19
2023-08-07T15:55:00.103Z,101512.94
2023-08-07T15:57:27.718Z,101517.63
2023-08-07T15:59:54.271Z,101513.88
2023-08-07T16:02:21.061Z,101509.09
2023-08-07T16:04:48.834Z,101508.19
2023-08-07T16:07:15.400Z,101504.25
2023-08-07T16:09:41.989Z,101503.13
2023-08-07T16:12:09.616Z,101495.19
2023-08-07T16:14:37.887Z,101488.44
2023-08-07T16:17:05.641Z,101511.38
2023-08-07T16:19:33.287Z,101501.59
2023-08-07T16:21:59.883Z,101500.66
2023-08-07T16:24:26.460Z,101503.09
2023-08-07T16:26:54.110Z,101488.19
2023-08-07T16:29:20.712Z,101495.41
2023-08-07T16:31:48.399Z,101490.06
2023-08-07T16:34:15.027Z,101497.91
2023-08-07T16:36:42.684Z,101502.63
2023-08-07T16:39:09.277Z,101493.53
2023-08-07T16:41:36.873Z,101492.50
2023-08-07T16:44:03.572Z,101480.19
2023-08-07T16:46:31.103Z,101479.81
2023-08-07T16:49:01.026Z,101475.28
2023-08-07T16:51:27.620Z,101471.53
2023-08-07T16:53:54.174Z,101470.69
2023-08-07T16:56:21.761Z,101468.34
2023-08-07T16:58:48.341Z,101461.69
2023-08-07T17:01:14.944Z,101461.22
2023-08-07T17:03:42.684Z,101458.03
2023-08-07T17:06:09.309Z,101456.25
2023-08-07T17:08:37.982Z,101454.06
2023-08-07T17:11:04.830Z,101444.88
2023-08-07T17:13:32.874Z,101444.41
2023-08-07T17:15:59.483Z,101448.06
2023-08-07T17:18:26.078Z,101442.44
2023-08-07T17:20:53.681Z,101432.22
2023-08-07T17:23:20.258Z,101446.38
2023-08-07T17:25:47.896Z,101438.31
2023-08-07T17:28:14.443Z,101436.06
2023-08-07T17:30:41.058Z,101426.22
2023-08-07T17:33:08.714Z,101416.41
2023-08-07T17:35:36.389Z,101415.13
2023-08-07T17:38:02.981Z,101413.44
2023-08-07T17:40:29.559Z,101403.22
2023-08-07T17:42:57.184Z,101411.84
2023-08-07T17:45:23.730Z,101417.31
2023-08-07T17:47:51.427Z,101421.81
2023-08-07T17:50:18.183Z,101418.59
2023-08-07T17:52:45.835Z,101423.69
2023-08-07T17:55:12.392Z,101421.16
2023-08-07T17:57:39.143Z,101420.59
2023-08-07T18:00:07.841Z,101423.31
2023-08-07T18:02:35.008Z,101417.47
2023-08-07T18:05:01.850Z,101414.84
2023-08-07T18:07:29.996Z,101420.75
2023-08-07T18:09:57.765Z,101412.34
2023-08-07T18:12:24.308Z,101418.06
2023-08-07T18:14:50.850Z,101411.94
2023-08-07T18:17:18.489Z,101407.25
2023-08-07T18:19:45.058Z,101409.22
2023-08-07T18:22:12.700Z,101409.75
2023-08-07T18:24:39.290Z,101406.88
2023-08-07T18:27:06.957Z,101402.13
2023-08-07T18:29:33.591Z,101402.78
2023-08-07T18:32:01.326Z,101408.59
2023-08-07T18:34:27.908Z,101401.94
2023-08-07T18:36:54.446Z,101413.00
2023-08-07T18:39:22.050Z,101403.44
2023-08-07T18:41:48.770Z,101400.16
2023-08-07T18:44:15.354Z,101401.00
2023-08-07T18:46:44.149Z,101387.66
2023-08-07T18:49:10.985Z,101396.84
2023-08-07T18:51:37.664Z,101396.25
2023-08-07T18:54:06.795Z,101403.22
2023-08-07T18:56:33.369Z,101409.03
2023-08-07T18:59:00.964Z,101394.31
2023-08-07T19:01:27.522Z,101399.19
2023-08-07T19:03:55.139Z,101398.03
2023-08-07T19:06:21.711Z,101397.31
2023-08-07T19:08:50.347Z,101404.44
2023-08-07T19:11:16.799Z,101404.94
2023-08-07T19:13:44.447Z,101399.00
2023-08-07T19:16:11.108Z,101384.94
2023-08-07T19:18:37.672Z,101392.50
2023-08-07T19:21:05.371Z,101391.47
2023-08-07T19:23:31.957Z,101391.84
2023-08-07T19:26:00.233Z,101388.78
2023-08-07T19:28:26.959Z,101396.66
2023-08-07T19:31:05.148Z,101393.28
2023-08-07T19:33:34.085Z,101399.91
2023-08-07T19:36:00.675Z,101400.94
2023-08-07T19:38:28.589Z,101405.03
2023-08-07T19:40:55.173Z,101398.25
2023-08-07T19:43:21.836Z,101398.44
2023-08-07T19:45:49.473Z,101389.13
2023-08-07T19:48:16.067Z,101389.00
2023-08-07T19:50:43.722Z,101384.28
2023-08-07T19:53:10.298Z,101385.66
2023-08-07T19:55:36.866Z,101384.81
2023-08-07T19:58:04.572Z,101383.47
2023-08-07T20:00:31.234Z,101389.94
2023-08-07T20:02:58.918Z,101388.25
2023-08-07T20:05:25.666Z,101393.38
2023-08-07T20:07:52.227Z,101389.13
2023-08-07T20:10:19.849Z,101385.75
2023-08-07T20:12:46.382Z,101384.78
2023-08-07T20:15:14.153Z,101385.81
2023-08-07T20:17:40.896Z,101391.41
2023-08-07T20:20:08.036Z,101387.00
2023-08-07T20:22:35.775Z,101396.34
2023-08-07T20:25:02.351Z,101397.38
2023-08-07T20:27:28.953Z,101390.91
2023-08-07T20:29:56.566Z,101393.66
2023-08-07T20:32:23.203Z,101376.25
2023-08-07T20:34:50.855Z,101385.72
2023-08-07T20:37:17.430Z,101387.59
2023-08-07T20:39:43.964Z,101384.91
2023-08-07T20:42:11.577Z,101377.78
2023-08-07T20:44:39.172Z,101385.09
2023-08-07T20:47:05.871Z,101376.09
2023-08-07T20:49:32.470Z,101382.72
2023-08-07T20:52:00.327Z,101384.59
2023-08-07T20:54:27.267Z,101391.34
2023-08-07T20:56:54.859Z,101389.97
2023-08-07T20:59:21.447Z,101393.22
2023-08-07T21:01:49.042Z,101396.63
2023-08-07T21:04:15.668Z,101386.97
2023-08-07T21:06:42.592Z,101375.47
2023-08-07T21:09:10.338Z,101381.94
2023-08-07T21:11:37.124Z,101382.25
2023-08-07T21:14:04.878Z,101392.44
2023-08-07T21:16:31.926Z,101388.88
2023-08-07T21:18:59.813Z,101384.47
2023-08-07T21:21:26.756Z,101394.47
2023-08-07T21:23:53.519Z,101393.28
2023-08-07T21:26:21.349Z,101391.41
2023-08-07T21:28:47.925Z,101391.44
2023-08-07T21:31:15.718Z,101393.81
2023-08-07T21:33:42.282Z,101386.19
2023-08-07T21:36:08.822Z,101387.91
2023-08-07T21:38:36.480Z,101370.47
2023-08-07T21:41:03.039Z,101386.88
2023-08-07T21:43:30.657Z,101390.75
2023-08-07T21:45:57.355Z,101386.34
2023-08-07T21:48:23.934Z,101380.09
2023-08-07T21:50:51.552Z,101380.94
2023-08-07T21:53:18.622Z,101381.97
2023-08-07T21:55:46.229Z,101378.56
2023-08-07T21:58:12.811Z,101377.03
2023-08-07T22:00:40.637Z,101377.53
2023-08-07T22:03:07.288Z,101366.53
2023-08-07T22:05:33.950Z,101378.38
2023-08-07T22:08:01.573Z,101376.69
2023-08-07T22:10:28.514Z,101363.00
2023-08-07T22:12:56.207Z,101375.88
2023-08-07T22:15:22.871Z,101379.94
2023-08-07T22:17:49.489Z,101376.22
2023-08-07T22:20:17.193Z,101370.78
2023-08-07T22:22:44.212Z,101364.00
2023-08-07T22:25:11.813Z,101365.50
2023-08-07T22:27:38.540Z,101364.69
2023-08-07T22:30:07.111Z,101359.59
2023-08-07T22:32:33.794Z,101357.56
2023-08-07T22:35:01.520Z,101358.56
2023-08-07T22:37:28.060Z,101355.63
2023-08-07T22:39:55.667Z,101359.69
2023-08-07T22:42:23.250Z,101360.84
2023-08-07T22:44:53.115Z,101361.97
2023-08-07T22:47:19.764Z,101367.88
2023-08-07T22:49:47.824Z,101366.19
2023-08-07T22:52:14.403Z,101362.94
2023-08-07T22:54:42.515Z,101362.19
2023-08-07T22:57:09.106Z,101369.53
2023-08-07T22:59:36.759Z,101377.78
2023-08-07T23:02:04.072Z,101376.72
2023-08-07T23:04:30.596Z,101364.31
2023-08-07T23:06:58.219Z,101364.09
2023-08-07T23:09:24.793Z,101355.63
2023-08-07T23:11:51.338Z,101362.88
2023-08-07T23:14:18.962Z,101360.50
2023-08-07T23:16:45.506Z,101353.72
2023-08-07T23:19:13.567Z,101356.25
2023-08-07T23:21:40.141Z,101353.34
2023-08-07T23:24:07.840Z,101353.53
2023-08-07T23:26:34.389Z,101347.44
2023-08-07T23:29:02.290Z,101346.34
2023-08-07T23:31:30.040Z,101348.03
2023-08-07T23:33:57.734Z,101347.19
2023-08-07T23:36:24.456Z,101347.03
2023-08-07T23:38:52.144Z,101337.22
2023-08-07T23:41:18.695Z,101332.81
2023-08-07T23:43:45.299Z,101327.44
2023-08-07T23:46:12.965Z,101327.81
2023-08-07T23:48:39.544Z,101325.97
2023-08-07T23:51:07.179Z,101319.41
2023-08-07T23:53:33.883Z,101322.09
2023-08-07T23:56:01.673Z,101324.97
2023-08-07T23:58:28.254Z,101317.16
